Time;durP1;ratioP1;P1;durP2;ratioP2;P2;SDS_P1;SDS_P2;PMS_P1;PMS_P2;Temp;Humidity;BMP_temperature;BMP_pressure;BME280_temperature;BME280_humidity;BME280_pressure;Samples;Min_cycle;Max_cycle;Signal;HPM_P1;HPM_P2
2023/06/19 00:01:55;;;;;;;7.63;4.43;;;;;;;16.11;45.04;99495.69;4953831;28;20054;-71
2023/06/19 00:04:20;;;;;;;7.65;4.30;;;;;;;16.08;44.83;99487.91;4954552;28;20067;-68
2023/06/19 00:06:45;;;;;;;7.88;3.67;;;;;;;16.06;44.18;99498.81;4955306;28;20050;-68
2023/06/19 00:09:11;;;;;;;7.85;3.75;;;;;;;16.03;44.38;99492.91;4955628;28;20409;-69
2023/06/19 00:11:36;;;;;;;9.30;3.70;;;;;;;16.01;44.65;99503.81;4955801;28;20068;-67
2023/06/19 00:14:01;;;;;;;5.97;3.78;;;;;;;15.98;44.53;99461.91;4959230;28;20049;-71
2023/06/19 00:16:27;;;;;;;8.18;3.72;;;;;;;15.95;44.30;99505.22;4958086;28;20046;-68
2023/06/19 00:18:55;;;;;;;5.40;3.38;;;;;;;15.91;44.17;99495.75;4959180;28;20045;-68
2023/06/19 00:21:25;;;;;;;5.55;3.80;;;;;;;15.93;44.47;99500.97;4959092;28;20046;-71
2023/06/19 00:23:51;;;;;;;5.50;3.75;;;;;;;15.89;44.52;99499.59;4974463;28;20050;-71
2023/06/19 00:26:16;;;;;;;7.30;4.20;;;;;;;15.87;44.49;99501.59;4959515;28;20050;-71
2023/06/19 00:28:44;;;;;;;7.75;4.10;;;;;;;15.85;44.49;99525.06;4959609;28;20049;-72
2023/06/19 00:31:10;;;;;;;6.32;3.55;;;;;;;15.87;44.59;99489.00;4959563;28;20422;-72
2023/06/19 00:33:35;;;;;;;6.18;4.22;;;;;;;15.87;44.25;99499.75;4941342;28;20058;-74
2023/06/19 00:36:01;;;;;;;10.07;3.63;;;;;;;15.81;44.50;99502.16;4959206;28;20042;-75
2023/06/19 00:38:26;;;;;;;6.68;3.72;;;;;;;15.77;44.70;99501.63;4942086;28;20050;-71
2023/06/19 00:40:52;;;;;;;13.20;4.38;;;;;;;15.74;44.85;99501.06;4960264;28;20042;-79
2023/06/19 00:43:17;;;;;;;7.70;4.13;;;;;;;15.70;44.56;99499.63;4958569;28;20050;-74
2023/06/19 00:45:43;;;;;;;6.05;3.90;;;;;;;15.70;44.75;99513.06;4959622;28;20042;-76
2023/06/19 00:48:08;;;;;;;9.18;4.10;;;;;;;15.66;44.80;99503.63;4959515;28;20069;-77
2023/06/19 00:50:34;;;;;;;9.70;4.30;;;;;;;15.74;44.29;99501.06;4958234;28;20050;-73
2023/06/19 00:53:03;;;;;;;12.13;4.47;;;;;;;15.69;44.69;99520.28;4967212;28;20050;-77
2023/06/19 00:55:32;;;;;;;9.82;4.28;;;;;;;15.66;45.08;99503.63;4947010;28;20039;-75
2023/06/19 00:58:00;;;;;;;8.45;4.43;;;;;;;15.66;44.88;99509.00;4941382;28;20065;-75
2023/06/19 01:00:25;;;;;;;7.35;3.97;;;;;;;15.58;45.28;99510.56;4958284;28;20053;-74
2023/06/19 01:02:50;;;;;;;6.15;3.55;;;;;;;15.55;44.77;99515.41;4942512;28;20058;-77
2023/06/19 01:05:16;;;;;;;6.82;3.92;;;;;;;15.52;45.35;99507.56;4958389;28;20034;-74
2023/06/19 01:08:03;;;;;;;6.47;4.30;;;;;;;15.50;45.13;99504.19;4973792;28;20050;-71
2023/06/19 01:10:34;;;;;;;8.27;3.80;;;;;;;15.52;45.52;99535.28;4952902;28;20416;-71
2023/06/19 01:13:12;;;;;;;6.72;3.75;;;;;;;15.53;45.93;99515.50;4941052;28;20057;-71
2023/06/19 01:15:40;;;;;;;10.82;4.55;;;;;;;15.50;45.49;99521.16;4965507;28;20030;-71
2023/06/19 01:18:08;;;;;;;7.00;4.68;;;;;;;15.47;45.89;99516.06;4964077;28;20041;-70
2023/06/19 01:20:34;;;;;;;9.10;4.00;;;;;;;15.46;45.50;99508.97;4946895;28;20038;-71
2023/06/19 01:23:10;;;;;;;7.10;4.20;;;;;;;15.49;45.98;99508.72;4946523;28;20066;-72
2023/06/19 01:25:36;;;;;;;4.88;3.63;;;;;;;15.43;45.49;99498.56;4948667;28;20584;-72
2023/06/19 01:28:09;;;;;;;4.65;3.47;;;;;;;15.45;45.33;99510.00;4962011;28;20042;-71
2023/06/19 01:30:34;;;;;;;8.43;3.47;;;;;;;15.41;45.54;99515.78;4947363;28;20034;-72
2023/06/19 01:33:08;;;;;;;9.82;4.10;;;;;;;15.42;45.79;99528.25;4947267;28;20038;-71
2023/06/19 01:35:36;;;;;;;12.07;5.13;;;;;;;15.43;45.39;99511.97;4963172;28;20043;-73
2023/06/19 01:38:02;;;;;;;7.07;3.85;;;;;;;15.50;45.48;99510.41;4961740;28;20046;-73
2023/06/19 01:40:31;;;;;;;6.45;4.10;;;;;;;15.43;45.81;99509.28;4956173;28;20054;-73
2023/06/19 01:43:00;;;;;;;9.85;3.70;;;;;;;15.45;45.50;99522.59;4943857;28;20045;-72
2023/06/19 01:45:28;;;;;;;6.72;3.80;;;;;;;15.44;45.50;99537.88;4940722;28;20062;-72
2023/06/19 01:47:53;;;;;;;5.95;4.07;;;;;;;15.44;45.80;99518.19;4956538;28;20034;-72
2023/06/19 01:50:18;;;;;;;5.72;3.50;;;;;;;15.45;45.59;99528.81;4957816;28;20057;-72
2023/06/19 01:52:44;;;;;;;8.10;4.50;;;;;;;15.46;45.88;99524.28;4973011;28;20413;-72
2023/06/19 01:55:11;;;;;;;7.22;4.15;;;;;;;15.50;45.46;99529.22;4956770;28;20049;-73
2023/06/19 01:57:36;;;;;;;5.47;3.92;;;;;;;15.53;45.20;99515.50;4970628;28;20054;-74
2023/06/19 02:00:04;;;;;;;5.30;3.78;;;;;;;15.58;45.68;99515.94;4956052;28;20054;-71
2023/06/19 02:02:40;;;;;;;5.78;4.15;;;;;;;15.64;45.42;99538.69;4957638;28;20053;-71
2023/06/19 02:05:05;;;;;;;7.35;4.05;;;;;;;15.64;45.12;99516.34;4972318;28;20042;-70
2023/06/19 02:07:30;;;;;;;7.10;4.72;;;;;;;15.63;45.10;99520.03;4958260;28;20046;-71
2023/06/19 02:09:59;;;;;;;7.13;3.78;;;;;;;15.66;45.31;99519.75;4959883;28;20432;-71
2023/06/19 02:12:24;;;;;;;8.75;3.80;;;;;;;15.65;45.02;99523.44;4974491;28;20417;-71
2023/06/19 02:14:49;;;;;;;13.73;4.10;;;;;;;15.67;45.04;99527.69;4974658;28;20049;-72
2023/06/19 02:17:15;;;;;;;8.05;4.38;;;;;;;15.73;45.06;99518.16;4959467;28;20053;-70
2023/06/19 02:19:40;;;;;;;6.47;3.58;;;;;;;15.73;44.91;99536.97;4960105;28;20050;-71
2023/06/19 02:22:25;;;;;;;7.68;3.40;;;;;;;15.76;44.69;99536.69;4961168;28;20042;-76
2023/06/19 02:24:52;;;;;;;4.15;3.20;;;;;;;15.80;44.60;99511.25;4963601;28;20042;-78
2023/06/19 02:27:18;;;;;;;6.75;3.75;;;;;;;15.81;44.54;99508.38;4961603;28;20064;-76
2023/06/19 02:29:43;;;;;;;5.22;3.72;;;;;;;15.80;44.81;99517.44;4960267;28;20046;-73
2023/06/19 02:32:08;;;;;;;7.68;3.95;;;;;;;15.85;44.32;99515.16;4960370;28;20045;-72
2023/06/19 02:34:34;;;;;;;5.15;3.58;;;;;;;15.86;44.37;99526.75;4974047;28;20038;-69
2023/06/19 02:36:59;;;;;;;7.22;3.42;;;;;;;15.94;44.75;99500.00;4956489;28;20492;-69
2023/06/19 02:39:24;;;;;;;5.72;3.15;;;;;;;16.00;44.15;99514.69;4959087;28;20057;-69
2023/06/19 02:41:49;;;;;;;5.70;3.40;;;;;;;16.04;44.51;99511.56;4975650;28;20045;-69
2023/06/19 02:44:15;;;;;;;11.27;3.70;;;;;;;16.10;44.09;99513.66;4961908;28;20059;-69
2023/06/19 02:46:42;;;;;;;4.90;2.92;;;;;;;16.11;44.25;99519.91;4991529;28;20037;-69
2023/06/19 02:49:08;;;;;;;6.32;3.65;;;;;;;16.15;44.18;99508.69;4975986;28;20034;-69
2023/06/19 02:51:33;;;;;;;6.63;3.10;;;;;;;16.20;44.36;99506.41;4976423;28;20018;-69
2023/06/19 02:53:58;;;;;;;3.22;2.92;;;;;;;16.25;44.09;99500.59;4977780;28;20061;-68
2023/06/19 02:56:25;;;;;;;6.13;3.40;;;;;;;16.30;43.81;99515.28;4979091;28;20014;-68
2023/06/19 02:58:50;;;;;;;9.18;3.53;;;;;;;16.43;43.78;99514.06;4974792;28;20046;-70
2023/06/19 03:01:15;;;;;;;6.20;3.13;;;;;;;16.63;42.96;99502.22;4976001;28;20076;-69
2023/06/19 03:03:46;;;;;;;7.82;3.92;;;;;;;16.81;43.03;99496.88;4959788;28;20047;-69
2023/06/19 03:06:13;;;;;;;7.55;3.70;;;;;;;16.80;42.85;99496.03;4958143;28;20074;-73
2023/06/19 03:08:39;;;;;;;5.65;3.40;;;;;;;16.83;42.69;99498.41;4956539;28;20559;-73
2023/06/19 03:11:05;;;;;;;7.60;3.95;;;;;;;16.73;42.78;99500.31;4938899;28;20054;-71
2023/06/19 03:13:48;;;;;;;5.60;4.10;;;;;;;16.80;42.46;99495.19;4923531;28;20492;-73
2023/06/19 03:16:16;;;;;;;15.02;4.40;;;;;;;16.75;42.67;99492.09;4952662;28;20061;-72
2023/06/19 03:18:44;;;;;;;6.18;4.28;;;;;;;16.80;42.65;99496.03;4956639;28;20046;-70
2023/06/19 03:21:11;;;;;;;9.10;6.45;;;;;;;16.87;42.37;99491.72;4961964;28;20049;-71
2023/06/19 03:23:36;;;;;;;6.97;3.67;;;;;;;16.94;41.93;99508.94;4938523;28;20065;-75
2023/06/19 03:26:01;;;;;;;4.63;3.00;;;;;;;17.00;42.24;99497.56;4958079;28;20058;-79
2023/06/19 03:28:27;;;;;;;4.10;3.63;;;;;;;17.14;42.22;99503.44;4941833;28;20049;-83
2023/06/19 03:30:53;;;;;;;6.72;3.42;;;;;;;17.24;41.52;99512.25;4959314;28;20046;-83
2023/06/19 03:33:22;;;;;;;6.63;3.42;;;;;;;17.34;41.47;99497.69;4957806;28;20038;-79
2023/06/19 03:35:47;;;;;;;5.80;3.50;;;;;;;17.40;41.57;99515.06;4958675;28;20053;-79
2023/06/19 03:38:23;;;;;;;7.68;3.70;;;;;;;17.46;41.41;99498.31;4958032;28;20049;-78
2023/06/19 03:40:51;;;;;;;5.10;3.30;;;;;;;17.54;40.99;99506.44;4941401;28;20054;-82
2023/06/19 03:43:16;;;;;;;8.75;3.92;;;;;;;17.66;40.97;99504.38;4942104;28;20046;-80
2023/06/19 03:45:42;;;;;;;6.80;4.35;;;;;;;17.74;40.97;99517.91;4958955;28;20486;-82
2023/06/19 03:48:09;;;;;;;6.60;3.75;;;;;;;17.83;40.76;99508.88;4932339;28;20054;-78
2023/06/19 03:50:34;;;;;;;9.57;3.72;;;;;;;17.94;40.69;99524.78;4965434;28;20045;-81
2023/06/19 03:52:59;;;;;;;7.90;3.83;;;;;;;18.06;40.53;99495.66;4964251;28;20126;-83
2023/06/19 03:55:24;;;;;;;6.32;3.70;;;;;;;18.19;40.46;99492.53;4961973;28;20100;-79
2023/06/19 03:57:50;;;;;;;8.10;3.70;;;;;;;18.34;40.35;99509.81;4962734;28;20042;-80
2023/06/19 04:00:18;;;;;;;5.75;3.38;;;;;;;18.49;40.37;99492.00;4979288;28;20050;-81
2023/06/19 04:02:46;;;;;;;7.88;3.92;;;;;;;18.59;39.45;99524.28;4994040;28;20023;-81
2023/06/19 04:05:11;;;;;;;9.27;3.53;;;;;;;18.71;39.30;99498.66;4968733;28;20046;-81
2023/06/19 04:07:36;;;;;;;5.90;3.92;;;;;;;18.79;38.95;99520.28;4970063;28;20061;-80
2023/06/19 04:10:02;;;;;;;4.93;3.70;;;;;;;18.93;39.06;99505.28;4960417;28;20054;-79
2023/06/19 04:12:29;;;;;;;8.55;4.30;;;;;;;19.08;38.92;99514.41;4980643;28;20042;-80
2023/06/19 04:14:54;;;;;;;11.60;4.05;;;;;;;19.17;38.80;99508.88;4952700;28;20054;-86
2023/06/19 04:17:19;;;;;;;8.70;4.13;;;;;;;19.26;38.51;99506.16;4946380;28;20049;-84
2023/06/19 04:19:45;;;;;;;6.95;3.80;;;;;;;19.37;38.16;99495.88;4946849;28;20065;-81
2023/06/19 04:22:10;;;;;;;8.15;3.95;;;;;;;19.47;37.63;99499.25;4979124;28;20057;-85
2023/06/19 04:24:36;;;;;;;5.40;3.17;;;;;;;19.56;37.85;99492.00;4961415;28;20050;-81
2023/06/19 04:27:01;;;;;;;9.73;3.25;;;;;;;19.63;37.06;99492.16;4979677;28;20046;-81
2023/06/19 04:29:31;;;;;;;9.73;3.90;;;;;;;19.73;36.32;99490.13;4965151;28;20045;-83
2023/06/19 04:31:56;;;;;;;5.22;3.38;;;;;;;19.66;35.90;99502.63;4999246;28;20054;-83
2023/06/19 04:34:21;;;;;;;8.45;3.65;;;;;;;19.67;36.64;99494.34;4981054;28;20053;-81
2023/06/19 04:36:47;;;;;;;7.95;4.32;;;;;;;19.80;36.03;99526.28;4964606;28;20046;-80
2023/06/19 04:39:13;;;;;;;8.20;4.07;;;;;;;19.99;36.46;99504.25;4981527;28;20054;-81
2023/06/19 04:41:38;;;;;;;6.13;3.53;;;;;;;20.24;36.30;99497.75;4981418;28;20496;-79
2023/06/19 04:44:08;;;;;;;10.23;4.32;;;;;;;20.51;35.93;99487.53;4980902;28;20558;-78
2023/06/19 04:46:33;;;;;;;5.68;3.92;;;;;;;20.83;35.81;99497.34;4960582;28;20050;-79
2023/06/19 04:48:58;;;;;;;4.72;3.42;;;;;;;21.05;34.70;99495.66;4960989;28;20046;-79
2023/06/19 04:51:25;;;;;;;9.43;3.75;;;;;;;21.19;33.81;99497.63;4958540;28;20057;-79
2023/06/19 04:53:51;;;;;;;6.53;3.47;;;;;;;21.47;33.48;99501.44;4975201;28;20780;-78
2023/06/19 04:56:16;;;;;;;7.40;3.83;;;;;;;21.84;33.37;99491.63;4957425;28;20050;-77
2023/06/19 04:58:46;;;;;;;6.45;3.83;;;;;;;22.25;33.15;99492.03;4959274;28;20049;-77
2023/06/19 05:01:15;;;;;;;5.53;3.50;;;;;;;22.65;32.83;99477.09;4958585;28;20046;-77
2023/06/19 05:03:41;;;;;;;6.60;3.60;;;;;;;22.94;32.23;99457.16;4957371;28;20130;-80
2023/06/19 05:06:06;;;;;;;11.77;4.70;;;;;;;23.19;31.74;99521.00;4959714;28;20830;-78
2023/06/19 05:08:32;;;;;;;8.25;4.43;;;;;;;23.36;30.57;99495.25;4958596;28;20042;-78
2023/06/19 05:10:57;;;;;;;5.35;3.70;;;;;;;23.46;30.40;99484.03;4958141;28;20054;-77
2023/06/19 05:13:23;;;;;;;7.10;4.10;;;;;;;23.51;30.18;99487.88;4960085;28;20042;-80
2023/06/19 05:15:48;;;;;;;8.40;3.90;;;;;;;23.33;29.82;99479.31;4960238;28;20054;-82
2023/06/19 05:18:14;;;;;;;6.85;3.63;;;;;;;23.35;30.16;99470.97;4959754;28;20493;-79
2023/06/19 05:20:39;;;;;;;7.10;3.33;;;;;;;23.61;30.48;99483.94;4960132;28;20424;-81
2023/06/19 05:23:04;;;;;;;7.57;4.05;;;;;;;23.97;30.17;99492.81;4962434;28;20058;-77
2023/06/19 05:25:29;;;;;;;5.70;3.65;;;;;;;24.22;29.21;99480.44;4973742;28;20049;-78
2023/06/19 05:27:54;;;;;;;5.00;3.47;;;;;;;24.35;29.42;99484.28;4980069;28;20037;-78
2023/06/19 05:30:20;;;;;;;10.27;3.63;;;;;;;24.43;28.89;99492.28;4996338;28;20527;-79
2023/06/19 05:32:45;;;;;;;6.20;3.53;;;;;;;24.47;29.07;99494.41;4981436;28;20037;-79
2023/06/19 05:35:10;;;;;;;6.82;4.75;;;;;;;24.63;28.84;99498.66;4995750;28;20068;-80
2023/06/19 05:37:35;;;;;;;7.22;3.80;;;;;;;24.68;28.24;99479.81;4963895;28;20045;-78
2023/06/19 05:40:01;;;;;;;8.68;3.67;;;;;;;24.70;28.65;99504.97;4980260;28;20104;-76
2023/06/19 05:42:26;;;;;;;5.50;3.53;;;;;;;25.04;28.52;99478.69;4977170;28;20413;-76
2023/06/19 05:44:51;;;;;;;10.57;4.10;;;;;;;25.38;28.53;99481.25;4979366;28;20496;-76
2023/06/19 05:47:19;;;;;;;4.55;3.60;;;;;;;25.84;28.38;99474.97;4967564;28;20039;-76
2023/06/19 05:49:44;;;;;;;6.65;4.40;;;;;;;25.95;28.89;99469.72;4974993;28;20046;-79
2023/06/19 05:52:09;;;;;;;15.43;4.30;;;;;;;26.47;27.74;99492.50;4958293;28;20563;-81
2023/06/19 05:54:34;;;;;;;8.82;4.57;;;;;;;27.04;27.32;99461.53;4959631;28;20057;-82
2023/06/19 05:56:59;;;;;;;8.50;3.90;;;;;;;27.27;26.03;99466.44;4961829;28;20056;-79
2023/06/19 05:59:25;;;;;;;6.65;4.03;;;;;;;27.39;25.93;99466.53;4949693;28;20438;-74
2023/06/19 06:01:50;;;;;;;5.47;3.45;;;;;;;27.50;25.77;99449.41;4957765;28;20038;-74
2023/06/19 06:04:15;;;;;;;9.52;4.03;;;;;;;27.79;25.39;99476.13;4957894;28;20050;-73
2023/06/19 06:06:41;;;;;;;7.60;3.50;;;;;;;28.34;24.80;99495.41;4958390;28;20053;-75
2023/06/19 06:09:09;;;;;;;5.68;3.75;;;;;;;28.77;24.12;99489.00;4958449;28;20833;-76
2023/06/19 06:11:34;;;;;;;6.45;4.20;;;;;;;29.46;23.95;99400.53;4959064;28;20421;-77
2023/06/19 06:13:59;;;;;;;5.45;3.55;;;;;;;30.24;23.13;99416.69;4941128;28;20074;-76
2023/06/19 06:16:24;;;;;;;5.07;3.50;;;;;;;30.65;22.50;99409.28;4958315;28;20042;-74
2023/06/19 06:18:50;;;;;;;12.10;6.90;;;;;;;30.95;22.19;99409.00;4972765;28;20523;-73
2023/06/19 06:21:15;;;;;;;7.80;5.32;;;;;;;31.56;21.92;99407.31;4956285;28;20061;-76
2023/06/19 06:23:41;;;;;;;11.98;4.88;;;;;;;31.80;21.16;99408.84;4955706;28;20523;-75
2023/06/19 06:26:06;;;;;;;5.25;3.47;;;;;;;32.00;21.59;99400.00;4956017;28;20047;-76
2023/06/19 06:28:31;;;;;;;6.60;3.90;;;;;;;32.60;21.07;99399.13;4955910;28;20054;-75
2023/06/19 06:30:56;;;;;;;6.95;3.60;;;;;;;32.97;20.88;99400.09;4956676;28;20077;-76
2023/06/19 06:33:22;;;;;;;6.85;4.25;;;;;;;33.07;20.27;99402.16;4955896;28;20424;-76
2023/06/19 06:35:47;;;;;;;4.32;3.67;;;;;;;33.27;20.42;99401.53;4957326;28;20046;-74
2023/06/19 06:38:13;;;;;;;8.73;4.05;;;;;;;33.58;19.72;99408.94;4935899;28;20497;-72
2023/06/19 06:40:38;;;;;;;7.72;4.25;;;;;;;34.00;19.75;99408.97;4936547;28;20050;-73
2023/06/19 06:43:03;;;;;;;6.05;4.15;;;;;;;33.61;19.65;99402.06;4937794;28;20825;-73
2023/06/19 06:45:29;;;;;;;8.00;3.80;;;;;;;33.80;19.80;99408.84;4936287;28;20061;-73
2023/06/19 06:47:54;;;;;;;5.05;4.07;;;;;;;33.91;19.17;99404.22;4948031;28;20034;-74
2023/06/19 06:50:20;;;;;;;5.78;4.25;;;;;;;34.16;19.37;99399.66;4955194;28;20053;-74
2023/06/19 06:52:45;;;;;;;7.00;4.35;;;;;;;34.50;18.75;99393.75;4954336;28;20046;-73
2023/06/19 06:55:10;;;;;;;7.13;5.00;;;;;;;34.33;18.82;99393.09;4939145;28;20061;-73
2023/06/19 06:57:35;;;;;;;9.30;4.30;;;;;;;34.51;18.58;99398.19;4956748;28;20046;-74
2023/06/19 07:00:03;;;;;;;11.15;4.20;;;;;;;35.14;18.68;99390.56;4956611;28;20046;-73
2023/06/19 07:02:31;;;;;;;5.75;4.25;;;;;;;35.96;17.87;99386.66;4955405;28;20050;-73
2023/06/19 07:04:56;;;;;;;6.60;4.47;;;;;;;36.55;17.54;99385.91;4956585;28;20049;-75
2023/06/19 07:07:21;;;;;;;10.05;4.75;;;;;;;36.94;17.29;99389.56;4956413;28;20042;-74
2023/06/19 07:09:47;;;;;;;5.47;4.40;;;;;;;36.11;17.65;99389.41;4956628;28;20050;-78
2023/06/19 07:12:12;;;;;;;6.63;5.13;;;;;;;36.00;17.25;99383.06;4956251;28;20497;-75
2023/06/19 07:14:37;;;;;;;8.05;5.57;;;;;;;35.98;17.64;99371.41;4972269;28;20042;-76
2023/06/19 07:17:03;;;;;;;6.13;4.78;;;;;;;35.67;17.48;99373.38;4956817;28;20043;-76
2023/06/19 07:19:29;;;;;;;8.32;4.70;;;;;;;35.13;17.80;99373.09;4955870;28;20058;-77
2023/06/19 07:21:54;;;;;;;8.60;4.85;;;;;;;34.91;18.10;99369.75;4956795;28;20042;-76
2023/06/19 07:24:19;;;;;;;7.72;4.80;;;;;;;35.19;18.21;99373.94;4972430;28;20066;-77
2023/06/19 07:26:48;;;;;;;6.00;4.30;;;;;;;36.05;17.92;99379.41;4955247;28;20053;-74
2023/06/19 07:29:13;;;;;;;14.70;5.10;;;;;;;37.19;17.28;99369.13;4957328;28;20042;-76
2023/06/19 07:31:38;;;;;;;5.75;4.43;;;;;;;38.30;16.33;99369.13;4957405;28;20057;-76
2023/06/19 07:34:04;;;;;;;6.50;4.38;;;;;;;39.21;16.03;99359.44;4940521;28;20061;-75
2023/06/19 07:36:29;;;;;;;5.20;4.70;;;;;;;40.19;15.40;99360.16;4957555;28;20053;-76
2023/06/19 07:38:55;;;;;;;5.47;4.97;;;;;;;40.97;15.16;99359.03;4958277;28;20122;-75
2023/06/19 07:41:20;;;;;;;8.40;5.50;;;;;;;41.99;14.48;99357.25;4955653;28;20054;-75
2023/06/19 07:43:45;;;;;;;6.43;5.50;;;;;;;42.28;13.67;99365.06;4956791;28;20444;-75
2023/06/19 07:46:11;;;;;;;7.80;6.38;;;;;;;42.48;13.59;99367.28;4956395;28;20042;-75
2023/06/19 07:48:36;;;;;;;8.15;6.18;;;;;;;43.15;13.42;99369.63;4938726;28;20057;-75
2023/06/19 07:51:01;;;;;;;6.85;6.20;;;;;;;44.02;13.15;99370.34;4954389;28;20509;-75
2023/06/19 07:53:26;;;;;;;7.85;7.03;;;;;;;44.68;12.74;99367.81;4971909;28;20046;-74
2023/06/19 07:55:52;;;;;;;10.05;6.90;;;;;;;44.92;12.29;99370.78;4932489;28;20050;-73
2023/06/19 07:58:18;;;;;;;10.05;7.78;;;;;;;45.10;12.47;99363.84;4953415;28;20057;-76
2023/06/19 08:00:43;;;;;;;7.82;7.20;;;;;;;45.28;12.52;99364.50;4954705;28;20054;-74
2023/06/19 08:03:08;;;;;;;8.48;7.65;;;;;;;45.40;12.56;99367.34;4971193;28;20054;-73
2023/06/19 08:05:33;;;;;;;8.88;7.80;;;;;;;45.15;12.33;99369.25;4954518;28;20054;-74
2023/06/19 08:07:59;;;;;;;10.85;8.13;;;;;;;45.19;12.49;99373.03;4971106;28;20042;-74
2023/06/19 08:10:24;;;;;;;8.68;7.82;;;;;;;45.29;12.30;99360.53;4938364;28;20050;-74
2023/06/19 08:12:49;;;;;;;8.18;7.47;;;;;;;45.49;12.00;99368.09;4954804;28;20057;-74
2023/06/19 08:15:15;;;;;;;9.35;8.68;;;;;;;45.66;11.98;99357.84;4954445;28;20077;-73
2023/06/19 08:17:41;;;;;;;9.43;8.63;;;;;;;46.16;11.72;99372.47;4955993;28;20042;-75
2023/06/19 08:20:08;;;;;;;9.75;8.43;;;;;;;46.65;11.02;99366.00;4955978;28;20046;-75
2023/06/19 08:22:33;;;;;;;10.82;9.82;;;;;;;47.11;11.03;99367.41;4956197;28;20058;-74
2023/06/19 08:24:58;;;;;;;9.55;8.85;;;;;;;47.37;11.33;99356.50;4956608;28;20050;-73
2023/06/19 08:27:24;;;;;;;10.73;9.85;;;;;;;47.63;11.10;99358.81;4970964;28;20042;-74
2023/06/19 08:29:49;;;;;;;11.80;10.70;;;;;;;47.81;10.58;99353.66;4970875;28;20050;-74
2023/06/19 08:32:14;;;;;;;11.55;10.30;;;;;;;47.04;10.66;99367.22;4956295;28;20154;-75
2023/06/19 08:34:39;;;;;;;18.02;15.10;;;;;;;46.16;10.52;99366.84;4974744;28;20409;-74
2023/06/19 08:37:08;;;;;;;10.55;9.75;;;;;;;45.95;10.94;99354.84;4941637;28;20058;-75
2023/06/19 08:39:35;;;;;;;9.85;9.15;;;;;;;46.20;11.06;99353.66;4960440;28;20073;-76
2023/06/19 08:42:01;;;;;;;10.60;9.75;;;;;;;46.71;10.73;99359.78;4942575;28;20054;-76
2023/06/19 08:44:26;;;;;;;11.00;10.10;;;;;;;47.01;10.86;99354.63;4959218;28;20058;-76
2023/06/19 08:46:52;;;;;;;12.57;11.27;;;;;;;47.53;11.00;99353.69;4960525;28;20034;-76
2023/06/19 08:49:17;;;;;;;12.75;11.55;;;;;;;47.95;10.56;99342.72;4958588;28;20090;-76
2023/06/19 08:51:43;;;;;;;10.95;10.07;;;;;;;47.91;10.44;99338.97;4942116;28;20050;-76
2023/06/19 08:54:08;;;;;;;12.13;11.13;;;;;;;47.95;10.29;99334.25;4942138;28;20061;-76
2023/06/19 08:56:37;;;;;;;13.85;12.65;;;;;;;48.14;10.10;99339.97;4943559;28;20057;-77
2023/06/19 08:59:17;;;;;;;13.98;12.82;;;;;;;49.01;10.28;99342.38;4960003;28;20050;-75
2023/06/19 09:01:53;;;;;;;14.07;13.07;;;;;;;48.76;10.25;99343.88;4958889;28;20409;-76
2023/06/19 09:04:28;;;;;;;15.07;13.75;;;;;;;48.77;9.97;99339.00;4957749;28;20058;-74
2023/06/19 09:06:59;;;;;;;14.65;13.40;;;;;;;48.45;10.47;99333.47;4959072;28;20776;-74
2023/06/19 09:09:26;;;;;;;15.27;14.27;;;;;;;48.61;10.32;99333.41;4961391;28;20050;-74
2023/06/19 09:12:07;;;;;;;17.48;14.88;;;;;;;49.12;9.84;99333.28;4957756;28;20727;-74
2023/06/19 09:14:44;;;;;;;17.13;15.75;;;;;;;49.45;10.35;99336.38;4974070;28;20142;-76
2023/06/19 09:17:12;;;;;;;15.90;14.70;;;;;;;49.11;9.84;99332.47;4956716;28;20042;-75
2023/06/19 09:19:39;;;;;;;14.90;14.00;;;;;;;48.77;9.63;99328.50;4973926;28;20046;-74
2023/06/19 09:22:08;;;;;;;15.13;13.93;;;;;;;48.50;9.68;99326.69;4958413;28;20489;-74
2023/06/19 09:24:35;;;;;;;15.38;14.27;;;;;;;48.48;9.64;99327.06;4973995;28;20062;-74
2023/06/19 09:27:17;;;;;;;14.82;13.77;;;;;;;49.17;9.89;99321.69;4973703;28;20073;-74
2023/06/19 09:29:45;;;;;;;16.17;14.32;;;;;;;48.13;9.73;99321.38;4908145;28;20051;-81
2023/06/19 09:32:23;;;;;;;15.15;13.68;;;;;;;48.42;9.96;99320.03;4968677;28;20050;-79
2023/06/19 09:34:52;;;;;;;18.33;15.15;;;;;;;48.46;9.78;99314.47;4960382;28;20050;-83
2023/06/19 09:37:25;;;;;;;13.88;12.98;;;;;;;48.04;10.21;99315.91;4962074;28;20058;-85
2023/06/19 09:40:11;;;;;;;14.43;13.23;;;;;;;48.57;10.41;99313.53;4964729;28;20042;-82
2023/06/19 09:42:39;;;;;;;16.60;15.50;;;;;;;48.89;9.85;99308.56;4962806;28;20053;-83
2023/06/19 09:45:10;;;;;;;15.85;14.98;;;;;;;49.43;9.81;99313.31;4961474;28;20057;-85
2023/06/19 09:47:37;;;;;;;19.55;17.83;;;;;;;49.59;9.84;99316.84;4960803;28;20081;-84
2023/06/19 09:50:04;;;;;;;21.02;19.33;;;;;;;49.73;9.47;99311.44;4968123;28;20046;-81
2023/06/19 09:52:30;;;;;;;21.52;19.92;;;;;;;50.06;9.27;99309.97;4980158;28;20050;-83
2023/06/19 09:55:04;;;;;;;;;;;;;;;52.51;8.30;99310.69;4961121;28;20056;-81
2023/06/19 09:57:30;;;;;;;22.67;20.80;;;;;;;50.99;8.97;99310.13;4956696;28;19936;-79
2023/06/19 09:59:58;;;;;;;23.98;22.58;;;;;;;50.80;8.72;99304.56;4958379;28;20042;-79
2023/06/19 10:02:26;;;;;;;24.27;22.98;;;;;;;50.94;8.69;99312.47;4951803;28;20069;-79
2023/06/19 10:04:56;;;;;;;24.77;23.27;;;;;;;51.23;8.23;99307.97;4964493;28;20045;-76
2023/06/19 10:07:23;;;;;;;25.60;23.92;;;;;;;50.73;8.99;99301.63;4926486;28;20069;-79
2023/06/19 10:09:58;;;;;;;27.83;26.33;;;;;;;50.97;8.97;99309.69;4963829;28;20049;-80
2023/06/19 10:12:39;;;;;;;23.60;22.20;;;;;;;51.33;8.38;99310.09;4981622;28;20054;-84
2023/06/19 10:15:22;;;;;;;23.60;22.07;;;;;;;51.26;8.14;99301.50;4959394;28;20045;-80
2023/06/19 10:17:59;;;;;;;25.67;24.27;;;;;;;51.81;8.53;99291.09;4961135;28;20038;-80
2023/06/19 10:20:37;;;;;;;28.48;26.75;;;;;;;52.50;8.34;99286.28;4961283;28;20050;-80
2023/06/19 10:23:13;;;;;;;29.45;28.00;;;;;;;52.52;7.87;99289.53;4954225;28;20054;-77
2023/06/19 10:25:43;;;;;;;29.13;27.73;;;;;;;51.87;8.20;99276.09;4976388;28;20054;-75
2023/06/19 10:28:24;;;;;;;35.25;33.35;;;;;;;52.59;8.05;99283.94;4958308;28;20057;-76
2023/06/19 10:31:08;;;;;;;33.03;31.23;;;;;;;52.67;8.29;99284.78;4963929;28;20045;-74
2023/06/19 10:33:36;;;;;;;28.75;27.23;;;;;;;50.00;9.11;99278.28;4942923;28;20053;-77
2023/06/19 10:36:17;;;;;;;20.45;19.15;;;;;;;47.81;10.06;99299.97;4972761;28;20038;-78
2023/06/19 10:38:47;;;;;;;14.05;13.07;;;;;;;44.00;11.25;99258.28;4960721;28;20042;-82
2023/06/19 10:41:21;;;;;;;11.02;9.98;;;;;;;41.50;12.59;99274.28;4946997;28;20034;-85
2023/06/19 10:44:03;;;;;;;10.15;7.60;;;;;;;39.30;12.99;99257.19;4978068;28;20444;-80
2023/06/19 10:46:35;;;;;;;8.07;6.53;;;;;;;36.34;14.50;99255.53;4961237;28;20038;-80
2023/06/19 10:49:04;;;;;;;6.63;6.13;;;;;;;34.54;15.31;99260.00;4965532;28;20050;-78
2023/06/19 10:51:30;;;;;;;6.25;5.25;;;;;;;33.04;17.07;99259.88;4976961;28;20046;-77
2023/06/19 10:53:57;;;;;;;6.45;4.80;;;;;;;31.88;17.47;99303.63;4959255;28;20045;-76
2023/06/19 10:56:23;;;;;;;16.10;5.47;;;;;;;31.05;18.67;99297.13;4959142;28;20050;-75
2023/06/19 10:58:48;;;;;;;7.88;4.90;;;;;;;30.41;19.66;99298.44;4960655;28;20038;-80
2023/06/19 11:01:14;;;;;;;9.15;4.60;;;;;;;29.91;19.90;99299.06;4961541;28;20038;-78
2023/06/19 11:03:39;;;;;;;5.20;4.10;;;;;;;29.36;20.02;99300.56;4961893;28;20050;-77
2023/06/19 11:06:04;;;;;;;5.47;4.15;;;;;;;28.89;20.49;99292.34;4962042;28;20049;-80
2023/06/19 11:08:29;;;;;;;8.32;4.15;;;;;;;28.50;21.61;99296.50;4960111;28;20695;-79
2023/06/19 11:10:55;;;;;;;5.03;3.95;;;;;;;28.14;22.25;99302.88;4963517;28;20504;-81
2023/06/19 11:13:21;;;;;;;7.32;3.90;;;;;;;27.85;21.85;99303.69;4960993;28;20050;-79
2023/06/19 11:15:50;;;;;;;7.45;4.45;;;;;;;27.57;22.48;99324.22;4962162;28;20065;-79
2023/06/19 11:18:17;;;;;;;5.07;3.80;;;;;;;27.30;22.34;99301.75;4959997;28;20046;-75
2023/06/19 11:20:49;;;;;;;7.10;3.75;;;;;;;27.13;22.09;99256.84;4959499;28;20057;-75
2023/06/19 11:23:15;;;;;;;4.75;4.32;;;;;;;26.88;22.72;99243.16;4959099;28;20066;-74
2023/06/19 11:25:41;;;;;;;5.43;4.45;;;;;;;26.56;22.78;99242.38;4952280;28;20046;-74
2023/06/19 11:28:22;;;;;;;10.30;4.40;;;;;;;26.28;24.52;99236.50;4955727;28;20038;-75
2023/06/19 11:30:57;;;;;;;5.75;4.15;;;;;;;25.95;23.85;99231.22;4960197;28;20045;-76
2023/06/19 11:33:22;;;;;;;8.35;4.22;;;;;;;25.71;23.99;99223.78;4961179;28;20061;-79